Time;durP1;ratioP1;P1;durP2;ratioP2;P2;SDS_P1;SDS_P2;PMS_P1;PMS_P2;Temp;Humidity;BMP_temperature;BMP_pressure;BME280_temperature;BME280_humidity;BME280_pressure;Samples;Min_cycle;Max_cycle;Signal;HPM_P1;HPM_P2
2022/03/21 00:01:51;;;;;;;29.77;13.70;;;;;;;2.77;44.00;102980.94;3628969;78;99219;-81
2022/03/21 00:06:51;;;;;;;28.12;13.78;;;;;;;2.67;44.10;102984.98;3599626;79;98872;-80
2022/03/21 00:11:53;;;;;;;30.50;14.90;;;;;;;2.60;44.32;102979.77;3604386;81;98984;-81
2022/03/21 00:16:54;;;;;;;33.58;13.55;;;;;;;2.52;44.44;102977.52;3616767;81;98545;-82
2022/03/21 00:21:55;;;;;;;33.23;14.40;;;;;;;2.47;44.45;102976.69;3635134;80;98690;-81
2022/03/21 00:26:56;;;;;;;33.47;14.40;;;;;;;2.42;45.00;102970.68;3616866;79;98799;-80
2022/03/21 00:31:57;;;;;;;27.03;14.50;;;;;;;2.36;45.05;102965.46;3628798;80;98900;-81
2022/03/21 00:36:58;;;;;;;30.57;15.27;;;;;;;2.28;45.33;102972.19;3621929;79;99096;-81
2022/03/21 00:41:59;;;;;;;26.30;13.03;;;;;;;2.21;45.58;102974.84;3625415;80;97935;-81
2022/03/21 00:46:59;;;;;;;35.97;15.10;;;;;;;2.15;45.46;102976.72;3598787;80;98749;-81
2022/03/21 00:52:01;;;;;;;28.60;13.37;;;;;;;2.09;45.51;102980.44;3651787;80;98698;-81
2022/03/21 00:57:02;;;;;;;28.23;13.32;;;;;;;2.03;45.78;102976.61;3596918;80;98851;-81
2022/03/21 01:02:04;;;;;;;29.80;14.40;;;;;;;1.96;46.00;102976.81;3714687;79;98847;-82
2022/03/21 01:07:05;;;;;;;28.83;14.23;;;;;;;1.91;45.85;102967.81;3716729;78;98786;-81
2022/03/21 01:12:09;;;;;;;33.73;14.60;;;;;;;1.84;45.91;102976.69;3705283;78;98828;-81
2022/03/21 01:17:10;;;;;;;31.82;13.83;;;;;;;1.78;46.52;102981.79;3722061;79;98720;-81
2022/03/21 01:22:11;;;;;;;36.53;15.10;;;;;;;1.69;46.62;102970.58;3742852;79;98528;-80
2022/03/21 01:27:12;;;;;;;28.30;13.07;;;;;;;1.64;46.63;102964.29;3723354;78;98658;-82
2022/03/21 01:32:13;;;;;;;29.37;13.03;;;;;;;1.59;47.43;102960.16;3744261;78;98881;-82
2022/03/21 01:37:14;;;;;;;25.80;12.77;;;;;;;1.45;47.32;102961.10;3701718;79;98822;-81
2022/03/21 01:42:19;;;;;;;29.90;12.85;;;;;;;1.45;47.32;102961.10;3726831;78;98820;-82
2022/03/21 01:47:20;;;;;;;32.48;14.03;;;;;;;1.38;47.46;102960.46;3712640;79;98617;-82
2022/03/21 01:52:21;;;;;;;24.30;13.08;;;;;;;1.31;47.60;102954.98;3713655;79;98619;-82
2022/03/21 01:57:22;;;;;;;32.75;13.72;;;;;;;1.28;47.65;102954.11;3716912;78;99229;-82
2022/03/21 02:02:24;;;;;;;32.63;13.67;;;;;;;1.21;47.99;102946.16;3704752;78;98891;-82
2022/03/21 02:07:25;;;;;;;25.93;12.63;;;;;;;1.15;48.21;102945.02;3705971;79;98822;-82
2022/03/21 02:12:26;;;;;;;31.27;14.53;;;;;;;1.06;48.44;102940.58;3716586;78;98824;-83
2022/03/21 02:17:30;;;;;;;30.57;14.20;;;;;;;1.01;48.73;102943.23;3718802;79;98522;-81
2022/03/21 02:22:54;;;;;;;32.27;14.43;;;;;;;0.96;48.80;102943.16;3715500;79;98544;-81
2022/03/21 02:28:06;;;;;;;33.90;16.15;;;;;;;0.91;48.87;102945.81;3714586;79;98661;-81
2022/03/21 02:33:10;;;;;;;32.40;15.50;;;;;;;0.87;49.11;102937.05;3676220;78;98768;-80
2022/03/21 02:38:13;;;;;;;30.45;14.10;;;;;;;0.82;49.22;102935.66;3725230;78;98845;-82
2022/03/21 02:43:15;;;;;;;29.20;14.10;;;;;;;0.78;49.38;102938.58;3741742;77;98777;-81
2022/03/21 02:48:18;;;;;;;34.63;15.88;;;;;;;0.72;49.67;102932.26;3722618;78;98789;-81
2022/03/21 02:53:20;;;;;;;30.27;14.93;;;;;;;0.68;49.80;102931.14;3729222;78;27206;-81
2022/03/21 02:58:21;;;;;;;31.97;15.93;;;;;;;0.66;49.92;102933.27;3743931;77;98684;-81
2022/03/21 03:03:22;;;;;;;28.60;13.70;;;;;;;0.61;50.23;102922.91;3750966;78;99045;-81
2022/03/21 03:08:23;;;;;;;36.43;15.53;;;;;;;0.54;50.45;102920.37;3735323;78;98828;-81
2022/03/21 03:13:25;;;;;;;32.27;15.07;;;;;;;0.48;50.73;102924.59;3745569;77;98837;-81
2022/03/21 03:18:25;;;;;;;29.83;14.33;;;;;;;0.45;50.75;102927.83;3735189;78;98785;-82
2022/03/21 03:23:32;;;;;;;31.10;15.18;;;;;;;0.42;50.83;102932.38;3727534;78;31939;-81
2022/03/21 03:28:33;;;;;;;35.10;15.93;;;;;;;0.35;50.98;102931.22;3737554;78;98733;-82
2022/03/21 03:33:35;;;;;;;28.37;13.17;;;;;;;0.30;51.36;102938.42;3739017;76;98625;-81
2022/03/21 03:38:36;;;;;;;29.40;14.83;;;;;;;0.25;51.52;102936.47;3709444;77;98792;-82
2022/03/21 03:43:38;;;;;;;29.63;14.30;;;;;;;0.20;51.32;102945.04;3753033;77;98740;-82
2022/03/21 03:48:41;;;;;;;34.33;15.23;;;;;;;0.15;51.96;102945.79;3745611;78;99170;-82
2022/03/21 03:53:42;;;;;;;26.80;13.13;;;;;;;0.10;52.12;102934.87;3755451;78;26543;-81
2022/03/21 03:58:43;;;;;;;31.57;15.10;;;;;;;0.05;51.95;102931.25;3734081;78;98977;-81
2022/03/21 04:03:44;;;;;;;29.27;14.00;;;;;;;0.01;52.27;102935.54;3744347;77;98628;-81
2022/03/21 04:08:47;;;;;;;28.57;13.33;;;;;;;-0.04;52.26;102936.81;3732881;78;98938;-82
2022/03/21 04:13:49;;;;;;;33.37;14.33;;;;;;;-0.09;52.42;102940.23;3738481;78;99032;-82
2022/03/21 04:18:50;;;;;;;35.90;15.37;;;;;;;-0.11;52.50;102930.72;3735381;78;99684;-82
2022/03/21 04:23:51;;;;;;;31.80;16.67;;;;;;;-0.11;52.53;102936.13;3748477;78;98998;-82
2022/03/21 04:34:07;;;;;;;26.13;14.57;;;;;;;-0.11;52.43;102935.61;3654715;76;35956;-81
2022/03/21 04:39:08;;;;;;;28.30;14.77;;;;;;;-0.20;52.95;102938.42;3541807;79;99027;-81
2022/03/21 04:44:09;;;;;;;30.47;15.00;;;;;;;-0.23;53.11;102940.80;3535806;81;98984;-81
2022/03/21 04:49:10;;;;;;;28.13;13.37;;;;;;;-0.26;53.12;102942.11;3596317;78;99179;-81
2022/03/21 04:54:11;;;;;;;28.55;15.38;;;;;;;-0.28;53.22;102942.06;3633757;79;98986;-81
2022/03/21 04:59:12;;;;;;;33.27;16.03;;;;;;;-0.28;53.32;102944.77;3599201;80;99053;-81
2022/03/21 05:04:14;;;;;;;30.00;14.43;;;;;;;-0.28;53.57;102943.97;3620008;80;98872;-82
2022/03/21 05:09:14;;;;;;;30.93;15.80;;;;;;;-0.32;53.75;102947.70;3577268;81;99198;-82
2022/03/21 05:14:18;;;;;;;32.63;14.70;;;;;;;-0.23;53.61;102950.27;3611188;80;98919;-82
2022/03/21 05:19:19;;;;;;;35.90;16.33;;;;;;;-0.22;53.59;102952.45;3609557;79;99077;-81
2022/03/21 05:41:19;;;;;;;36.50;15.53;;;;;;;-0.15;54.10;102956.10;3494946;82;98822;-81
2022/03/21 05:45:31;;;;;;;32.33;16.17;;;;;;;-0.15;53.96;102965.58;3489739;82;98892;-81
2022/03/21 05:50:32;;;;;;;30.00;15.32;;;;;;;-0.12;54.16;102980.50;3495132;82;99091;-80
2022/03/21 05:55:33;;;;;;;38.43;17.80;;;;;;;-0.10;54.41;102975.14;3484379;84;98955;-82
2022/03/21 06:00:35;;;;;;;37.87;15.40;;;;;;;-0.04;54.66;102977.41;3512711;82;99067;-81
2022/03/21 06:05:35;;;;;;;32.87;16.10;;;;;;;0.02;54.49;102984.55;3522262;82;34747;-82
2022/03/21 06:10:36;;;;;;;31.50;14.73;;;;;;;0.15;54.52;102983.70;3515972;82;98805;-81
2022/03/21 06:15:39;;;;;;;35.67;15.87;;;;;;;0.27;54.73;102979.02;3516559;82;98707;-81
2022/03/21 06:20:40;;;;;;;33.30;15.57;;;;;;;0.52;54.02;102982.65;3518526;82;98822;-83
2022/03/21 06:25:41;;;;;;;45.67;18.52;;;;;;;0.77;53.78;102993.31;3518787;81;98801;-81
2022/03/21 06:30:42;;;;;;;31.67;16.07;;;;;;;1.11;53.06;102986.72;3514456;82;98349;-80
2022/03/21 06:35:44;;;;;;;38.40;17.33;;;;;;;1.32;52.89;102989.16;3519812;82;36007;-82
2022/03/21 06:40:45;;;;;;;37.93;17.20;;;;;;;1.47;52.58;102990.67;3507079;82;98735;-80
2022/03/21 06:45:48;;;;;;;47.33;18.13;;;;;;;1.66;52.22;102991.98;3498477;82;98642;-79
2022/03/21 06:50:51;;;;;;;32.30;16.73;;;;;;;1.90;51.83;102988.70;3537312;81;98869;-80
2022/03/21 06:55:52;;;;;;;49.42;20.90;;;;;;;2.12;51.31;102990.80;3554153;81;98823;-79
2022/03/21 07:00:53;;;;;;;51.60;23.33;;;;;;;2.34;51.25;102994.25;3523996;81;99051;-79
2022/03/21 07:05:55;;;;;;;35.83;17.80;;;;;;;2.54;50.72;102989.50;3557923;81;35128;-80
2022/03/21 07:10:56;;;;;;;32.70;17.60;;;;;;;2.73;49.97;102990.17;3540617;80;98714;-81
2022/03/21 07:15:57;;;;;;;36.83;18.83;;;;;;;3.00;49.24;102992.23;3536473;81;98738;-80
2022/03/21 07:20:57;;;;;;;34.63;16.90;;;;;;;3.28;48.67;102991.80;3546846;80;98876;-79
2022/03/21 07:25:58;;;;;;;32.63;18.63;;;;;;;3.44;48.47;102989.98;3569445;81;98852;-79
2022/03/21 07:30:59;;;;;;;37.90;17.27;;;;;;;3.72;47.43;102989.51;3533429;80;98773;-80
2022/03/21 07:36:01;;;;;;;36.70;17.50;;;;;;;3.85;47.02;102993.89;3572053;82;34867;-80
2022/03/21 07:41:07;;;;;;;35.57;16.57;;;;;;;4.07;46.71;102990.38;3556687;81;98467;-80
2022/03/21 07:51:26;;;;;;;32.42;16.20;;;;;;;4.55;45.62;102993.08;3556022;82;98663;-80
2022/03/21 07:56:27;;;;;;;35.43;16.43;;;;;;;4.74;44.86;102987.34;3549116;80;98877;-80
2022/03/21 08:01:32;;;;;;;30.47;16.03;;;;;;;5.00;45.22;102978.80;3545790;81;98793;-80
2022/03/21 08:06:33;;;;;;;33.08;15.88;;;;;;;5.26;43.62;102983.08;3565346;81;98759;-80
2022/03/21 08:11:34;;;;;;;31.53;16.13;;;;;;;5.52;43.50;102994.12;3625117;80;98380;-80
2022/03/21 08:16:34;;;;;;;32.23;16.87;;;;;;;5.71;43.70;102990.20;3633518;80;98784;-79
2022/03/21 08:21:36;;;;;;;32.67;16.57;;;;;;;5.96;42.50;102990.08;3634134;80;98805;-78
2022/03/21 08:26:37;;;;;;;32.33;16.10;;;;;;;6.24;41.83;102983.30;3557159;80;98863;-79
2022/03/21 08:31:39;;;;;;;33.10;16.97;;;;;;;6.50;41.95;102988.00;3508519;80;99115;-80
2022/03/21 08:36:40;;;;;;;30.47;17.03;;;;;;;6.82;41.82;102984.92;3536605;81;107757;-80
2022/03/21 08:41:41;;;;;;;28.70;14.97;;;;;;;7.12;41.18;102982.39;3539617;83;26435;-80
2022/03/21 08:46:43;;;;;;;27.67;15.60;;;;;;;7.47;40.81;102981.97;3551216;81;98868;-79
2022/03/21 08:51:44;;;;;;;28.07;14.43;;;;;;;7.88;40.73;102983.83;3544205;81;98570;-79
2022/03/21 08:56:44;;;;;;;31.23;16.30;;;;;;;8.34;40.14;102983.95;3538691;80;98892;-79
2022/03/21 09:01:46;;;;;;;29.00;16.90;;;;;;;8.77;39.90;102983.44;3548097;80;98896;-79
2022/03/21 09:06:46;;;;;;;36.67;18.07;;;;;;;9.48;39.73;102981.47;3525909;81;98871;-80
2022/03/21 09:11:48;;;;;;;29.87;16.90;;;;;;;10.12;38.35;102976.41;3539618;81;35182;-80
2022/03/21 09:16:50;;;;;;;31.42;19.30;;;;;;;10.76;38.02;102973.64;3550824;80;99012;-81
2022/03/21 09:21:53;;;;;;;38.25;19.50;;;;;;;11.50;38.32;102965.72;3535834;81;99047;-79
2022/03/21 09:26:53;;;;;;;33.47;18.00;;;;;;;12.18;36.90;102961.06;3549987;80;99284;-79
2022/03/21 09:31:55;;;;;;;35.83;20.90;;;;;;;13.02;36.46;102968.89;3552731;80;99655;-80
2022/03/21 09:36:56;;;;;;;34.15;19.27;;;;;;;13.69;35.35;102967.45;3589493;80;99365;-79
2022/03/21 09:41:57;;;;;;;31.17;19.15;;;;;;;14.33;35.67;102954.28;3599497;80;26366;-80
2022/03/21 09:48:08;;;;;;;27.93;17.67;;;;;;;14.22;32.39;102957.84;3536967;82;99178;-80
2022/03/21 09:52:03;;;;;;;34.50;17.62;;;;;;;14.30;32.00;102954.16;3639906;79;99015;-80
2022/03/21 09:57:04;;;;;;;24.67;16.90;;;;;;;14.51;31.68;102950.16;3653211;79;99152;-80
2022/03/21 10:02:07;;;;;;;24.57;16.10;;;;;;;14.75;31.23;102941.09;3659012;78;99134;-80
2022/03/21 10:07:09;;;;;;;27.13;15.48;;;;;;;14.91;29.85;102942.03;3656312;79;99156;-80
2022/03/21 10:12:11;;;;;;;25.25;16.15;;;;;;;15.17;30.28;102948.06;3659600;80;99132;-79
2022/03/21 10:17:15;;;;;;;27.67;15.70;;;;;;;15.82;30.54;102937.47;3584986;80;98841;-78
2022/03/21 10:22:22;;;;;;;25.92;14.07;;;;;;;16.35;29.66;102925.08;3565263;81;99148;-78
2022/03/21 10:27:39;;;;;;;28.27;14.75;;;;;;;16.75;28.88;102922.98;3573411;80;99491;-79
2022/03/21 10:32:47;;;;;;;22.05;14.07;;;;;;;16.81;28.92;102920.16;3607893;80;99198;-79
2022/03/21 10:37:53;;;;;;;23.77;14.55;;;;;;;17.11;27.33;102924.09;3595877;80;99239;-80
2022/03/21 10:43:04;;;;;;;22.70;14.40;;;;;;;16.89;26.24;102910.23;3613489;80;99193;-79
2022/03/21 10:48:12;;;;;;;33.13;14.85;;;;;;;16.96;27.62;102902.66;3657312;79;99041;-79
2022/03/21 10:53:23;;;;;;;24.32;13.50;;;;;;;17.03;27.32;102902.81;3662690;79;98877;-79
2022/03/21 10:58:43;;;;;;;24.10;14.00;;;;;;;17.36;27.05;102900.41;3660865;78;99074;-80
2022/03/21 11:03:50;;;;;;;21.00;11.70;;;;;;;17.25;25.93;102897.40;3639960;80;99063;-79
2022/03/21 11:08:52;;;;;;;17.05;10.63;;;;;;;16.83;25.39;102895.56;3661742;80;99164;-79
2022/03/21 11:13:53;;;;;;;21.23;11.85;;;;;;;16.93;25.36;102893.63;3584859;80;99149;-77
2022/03/21 11:18:56;;;;;;;33.35;13.10;;;;;;;17.21;26.28;102893.72;3609856;81;99090;-80
2022/03/21 11:23:57;;;;;;;21.00;11.95;;;;;;;17.34;25.50;102881.89;3658909;79;26657;-77
2022/03/21 11:29:37;;;;;;;18.77;11.73;;;;;;;16.90;25.08;102877.67;3659856;79;99010;-78
2022/03/21 11:35:13;;;;;;;20.95;10.25;;;;;;;16.69;24.10;102872.41;3650473;78;98999;-80
2022/03/21 11:40:37;;;;;;;18.20;10.85;;;;;;;16.76;24.16;102869.79;3620617;80;99034;-77
2022/03/21 11:45:39;;;;;;;18.67;11.48;;;;;;;16.48;25.35;102859.34;3631476;80;98979;-79
2022/03/21 11:50:40;;;;;;;22.90;12.05;;;;;;;16.47;24.35;102844.41;3630037;79;98962;-78
2022/03/21 11:55:46;;;;;;;20.82;12.30;;;;;;;16.32;24.73;102850.16;3636823;79;99641;-78
2022/03/21 12:01:28;;;;;;;22.95;11.68;;;;;;;16.03;24.88;102846.98;3630182;77;99125;-79
2022/03/21 12:06:31;;;;;;;20.17;10.97;;;;;;;16.09;25.13;102834.44;3625452;79;99512;-78
2022/03/21 12:11:48;;;;;;;19.55;11.22;;;;;;;16.37;24.24;102832.41;3623951;80;98522;-79
2022/03/21 12:17:06;;;;;;;20.82;10.82;;;;;;;16.46;24.76;102823.34;3629446;80;99471;-78
2022/03/21 12:22:33;;;;;;;22.50;12.05;;;;;;;16.52;25.37;102816.34;3636432;80;98984;-78
2022/03/21 12:27:41;;;;;;;17.80;10.85;;;;;;;16.41;24.80;102814.67;3623898;79;99139;-79
2022/03/21 12:32:54;;;;;;;22.45;12.68;;;;;;;16.13;24.99;102806.97;3622712;80;99175;-78
2022/03/21 12:37:55;;;;;;;21.93;11.97;;;;;;;15.71;24.28;102798.90;3609124;80;99551;-78
2022/03/21 12:42:57;;;;;;;21.15;13.70;;;;;;;15.49;24.24;102795.87;3614004;80;99212;-78
2022/03/21 12:48:05;;;;;;;20.77;12.50;;;;;;;15.50;25.50;102785.80;3631712;80;99225;-79
2022/03/21 12:53:10;;;;;;;23.12;13.50;;;;;;;15.61;25.36;102779.15;3643731;78;99046;-79
2022/03/21 12:58:14;;;;;;;23.70;13.78;;;;;;;15.45;25.50;102782.45;3628935;79;99095;-78
2022/03/21 13:03:17;;;;;;;22.85;14.73;;;;;;;15.46;25.70;102775.74;3586194;79;99147;-80
2022/03/21 13:13:42;;;;;;;31.30;14.05;;;;;;;15.37;26.48;102767.56;3562556;80;99133;-79
2022/03/21 13:18:45;;;;;;;21.00;13.28;;;;;;;15.32;26.73;102772.55;3590402;79;99546;-78
2022/03/21 13:23:49;;;;;;;21.75;13.60;;;;;;;15.40;27.12;102757.73;3543759;81;31708;-80
2022/03/21 13:28:53;;;;;;;23.67;14.15;;;;;;;15.54;27.41;102755.36;3522490;83;99061;-78
2022/03/21 13:34:03;;;;;;;20.50;12.15;;;;;;;15.44;26.04;102753.09;3539155;81;99164;-80
2022/03/21 13:39:26;;;;;;;22.98;14.10;;;;;;;15.30;27.10;102751.26;3525206;82;99249;-78
2022/03/21 13:44:32;;;;;;;24.82;14.03;;;;;;;15.22;26.62;102751.66;3528840;81;99248;-79
2022/03/21 13:50:08;;;;;;;22.77;13.93;;;;;;;15.22;26.63;102739.74;3547558;81;99200;-77
2022/03/21 13:55:28;;;;;;;27.40;13.85;;;;;;;15.26;27.72;102735.90;3539825;81;99270;-78
2022/03/21 14:00:41;;;;;;;19.12;11.43;;;;;;;15.10;25.96;102737.81;3540336;81;99244;-78
2022/03/21 14:05:42;;;;;;;35.35;13.28;;;;;;;14.89;26.22;102725.29;3528589;83;32217;-81
2022/03/21 14:11:04;;;;;;;39.00;13.13;;;;;;;14.98;27.28;102721.22;3538363;83;99021;-80
2022/03/21 14:16:07;;;;;;;36.03;13.53;;;;;;;15.03;26.97;102712.65;3550361;81;98206;-78
2022/03/21 14:21:09;;;;;;;23.53;13.37;;;;;;;14.91;27.54;102707.71;3541408;83;99649;-79
2022/03/21 14:31:29;;;;;;;22.93;12.55;;;;;;;14.65;27.29;102689.29;3541882;82;99192;-78
2022/03/21 14:36:33;;;;;;;19.60;10.40;;;;;;;14.45;26.78;102689.67;3559907;81;99443;-79
2022/03/21 14:41:34;;;;;;;19.67;10.78;;;;;;;14.33;26.95;102682.77;3555842;81;98631;-78
2022/03/21 14:46:35;;;;;;;20.77;11.27;;;;;;;14.19;27.32;102683.72;3534856;81;99030;-80
2022/03/21 14:51:38;;;;;;;18.83;11.37;;;;;;;14.14;26.67;102681.72;3533370;81;99243;-81
2022/03/21 14:56:39;;;;;;;23.20;11.15;;;;;;;14.03;26.41;102666.16;3531986;81;99351;-78
2022/03/21 15:01:42;;;;;;;20.25;10.48;;;;;;;13.94;27.26;102670.16;3550239;83;99272;-78
2022/03/21 15:06:43;;;;;;;19.12;10.25;;;;;;;13.82;27.24;102664.06;3532434;81;99290;-79
2022/03/21 15:11:45;;;;;;;18.80;10.43;;;;;;;13.74;27.65;102658.05;3554933;81;25916;-80
2022/03/21 15:16:46;;;;;;;19.67;11.13;;;;;;;13.62;27.13;102668.31;3546113;81;99385;-80
2022/03/21 15:21:48;;;;;;;18.20;10.07;;;;;;;13.49;27.80;102659.73;3538332;81;99069;-77
2022/03/21 15:26:50;;;;;;;19.32;9.75;;;;;;;13.40;27.55;102656.28;3542141;81;99606;-80
2022/03/21 15:31:52;;;;;;;23.60;11.57;;;;;;;13.23;27.68;102639.84;3537917;81;99002;-79
2022/03/21 15:42:12;;;;;;;24.92;10.13;;;;;;;13.09;27.25;102646.27;3541861;81;31751;-81
2022/03/21 15:47:13;;;;;;;19.57;9.67;;;;;;;13.00;27.60;102638.05;3547591;81;98951;-78
2022/03/21 15:52:16;;;;;;;27.47;11.13;;;;;;;12.91;27.34;102644.20;3559019;80;98864;-78
2022/03/21 15:57:18;;;;;;;23.15;10.70;;;;;;;12.83;27.90;102645.09;3543388;83;99130;-77
2022/03/21 16:02:20;;;;;;;25.50;11.65;;;;;;;12.78;29.47;102647.25;3549304;83;99590;-79
2022/03/21 16:07:21;;;;;;;21.10;10.43;;;;;;;12.66;28.42;102648.02;3539716;81;99234;-81
2022/03/21 16:12:22;;;;;;;21.43;11.07;;;;;;;12.54;28.75;102638.25;3543035;81;99212;-80
2022/03/21 16:17:22;;;;;;;54.70;18.60;;;;;;;12.45;28.96;102649.13;3534237;82;98915;-77
2022/03/21 16:22:24;;;;;;;37.57;18.80;;;;;;;12.33;28.91;102641.56;3548123;81;99097;-78
2022/03/21 16:27:26;;;;;;;29.77;14.75;;;;;;;12.21;28.71;102645.63;3547851;81;99573;-77
2022/03/21 16:32:27;;;;;;;32.33;13.17;;;;;;;12.10;29.03;102639.47;3544657;82;99268;-77
2022/03/21 16:37:28;;;;;;;24.77;11.13;;;;;;;11.99;29.96;102640.99;3529494;83;99250;-78
2022/03/21 16:42:30;;;;;;;23.27;11.13;;;;;;;11.87;30.01;102639.48;3538267;79;99278;-77
2022/03/21 16:47:31;;;;;;;21.50;11.63;;;;;;;11.77;29.87;102633.78;3537743;81;99122;-78
2022/03/21 16:52:32;;;;;;;28.73;15.53;;;;;;;11.70;30.91;102639.02;3547070;81;99006;-78
2022/03/21 16:57:34;;;;;;;28.60;14.37;;;;;;;11.58;31.44;102640.26;3624881;79;99092;-78
2022/03/21 17:02:38;;;;;;;82.10;19.70;;;;;;;11.48;32.09;102643.37;3613319;80;99231;-78
2022/03/21 17:07:38;;;;;;;68.28;16.50;;;;;;;11.30;31.49;102647.88;3551931;79;99175;-77
2022/03/21 17:12:41;;;;;;;35.80;17.43;;;;;;;11.13;31.57;102634.14;3560545;81;99109;-77
2022/03/21 17:17:44;;;;;;;22.62;13.43;;;;;;;10.96;31.77;102643.81;3550363;81;99165;-77
2022/03/21 17:28:05;;;;;;;48.10;15.83;;;;;;;10.58;32.76;102635.39;3561805;79;99034;-77
2022/03/21 17:33:06;;;;;;;41.00;17.73;;;;;;;10.37;33.23;102633.61;3570724;80;99243;-78
2022/03/21 17:38:07;;;;;;;34.07;17.03;;;;;;;10.21;35.21;102629.69;3561589;81;99160;-78
2022/03/21 17:43:11;;;;;;;33.53;17.50;;;;;;;10.02;35.34;102631.31;3557957;81;98956;-78
2022/03/21 17:48:13;;;;;;;30.55;16.48;;;;;;;9.85;35.97;102633.20;3551792;81;99141;-77
2022/03/21 17:53:29;;;;;;;170.38;75.45;;;;;;;9.65;36.86;102638.70;3555715;80;98487;-76
2022/03/21 17:58:30;;;;;;;76.12;38.75;;;;;;;9.45;37.67;102642.03;3543545;81;99324;-79
2022/03/21 18:03:31;;;;;;;68.13;36.20;;;;;;;9.20;36.53;102643.23;3546417;80;98775;-77
2022/03/21 18:08:33;;;;;;;69.03;35.73;;;;;;;9.06;37.89;102646.06;3540894;82;98846;-77
2022/03/21 18:13:34;;;;;;;70.08;37.60;;;;;;;8.93;37.90;102652.44;3558255;80;98879;-77
2022/03/21 18:18:38;;;;;;;68.33;33.70;;;;;;;8.77;39.09;102654.52;3571871;79;98793;-77
2022/03/21 18:23:38;;;;;;;56.70;30.97;;;;;;;8.56;40.29;102656.90;3577919;81;29747;-77
2022/03/21 18:28:39;;;;;;;56.13;28.47;;;;;;;8.39;40.96;102660.86;3564807;80;99118;-77
2022/03/21 18:33:40;;;;;;;47.93;26.23;;;;;;;8.19;41.35;102660.47;3554943;81;98886;-77
2022/03/21 18:38:41;;;;;;;96.03;42.73;;;;;;;7.99;41.15;102660.33;3546163;81;98941;-79
2022/03/21 18:43:44;;;;;;;89.70;38.30;;;;;;;7.86;40.52;102660.34;3550201;81;98842;-78
2022/03/21 18:48:46;;;;;;;73.57;33.47;;;;;;;7.73;40.78;102664.70;3540916;81;98854;-78
2022/03/21 18:53:47;;;;;;;62.30;29.93;;;;;;;7.61;41.10;102663.56;3549812;81;26094;-79
2022/03/21 18:58:49;;;;;;;63.63;28.32;;;;;;;7.46;41.72;102665.20;3548447;81;99024;-78
2022/03/21 19:03:52;;;;;;;72.73;29.47;;;;;;;7.30;41.26;102658.41;3553811;81;99159;-78
2022/03/21 19:08:53;;;;;;;66.50;30.27;;;;;;;7.15;41.92;102660.03;3557944;81;98849;-78
2022/03/21 19:13:54;;;;;;;59.80;26.43;;;;;;;7.02;41.58;102673.92;3565439;80;99234;-77
2022/03/21 19:18:55;;;;;;;48.90;22.93;;;;;;;6.89;41.40;102667.03;3542247;80;98855;-80
2022/03/21 19:23:56;;;;;;;48.37;23.77;;;;;;;6.77;41.37;102672.95;3559804;81;34871;-78
2022/03/21 19:28:57;;;;;;;44.67;23.50;;;;;;;6.66;41.61;102675.58;3550816;81;98779;-78
2022/03/21 19:33:58;;;;;;;50.23;25.23;;;;;;;6.56;41.56;102681.23;3557328;80;98792;-80
2022/03/21 19:39:00;;;;;;;51.80;24.97;;;;;;;6.44;42.24;102684.93;3544469;80;98835;-78
2022/03/21 19:44:00;;;;;;;52.33;25.67;;;;;;;6.33;42.93;102685.38;3542071;81;98943;-77
2022/03/21 19:49:02;;;;;;;64.77;32.47;;;;;;;6.21;43.28;102686.37;3532725;81;99226;-77
2022/03/21 19:54:03;;;;;;;66.80;31.77;;;;;;;6.09;42.78;102681.84;3540109;81;35349;-78
2022/03/21 19:59:07;;;;;;;75.10;31.57;;;;;;;6.00;42.73;102683.63;3541412;81;98543;-77
2022/03/21 20:04:08;;;;;;;77.33;32.93;;;;;;;5.91;43.01;102688.09;3547979;81;98680;-74
2022/03/21 20:09:11;;;;;;;68.87;30.63;;;;;;;5.82;43.33;102692.02;3557164;81;98951;-78
2022/03/21 20:14:13;;;;;;;63.73;31.33;;;;;;;5.75;43.52;102683.87;3557784;81;99211;-77
2022/03/21 20:19:14;;;;;;;66.70;31.80;;;;;;;5.66;43.48;102691.89;3529996;81;98912;-77
2022/03/21 20:24:15;;;;;;;57.63;27.87;;;;;;;5.57;43.24;102688.72;3515634;81;35027;-78
2022/03/21 20:29:16;;;;;;;52.10;27.30;;;;;;;5.49;43.99;102691.52;3559094;81;98879;-78
2022/03/21 20:34:18;;;;;;;61.53;31.80;;;;;;;5.42;44.25;102695.69;3548870;81;99198;-78
2022/03/21 20:39:19;;;;;;;55.93;28.30;;;;;;;5.34;44.68;102694.95;3529230;82;98894;-80
2022/03/21 20:44:21;;;;;;;56.13;28.97;;;;;;;5.25;44.62;102700.77;3574278;79;98769;-79
2022/03/21 20:49:22;;;;;;;65.43;30.00;;;;;;;5.16;44.84;102697.84;3606891;80;98741;-78
2022/03/21 20:54:23;;;;;;;57.10;27.40;;;;;;;5.09;45.21;102701.45;3642967;80;99245;-78
2022/03/21 20:59:26;;;;;;;62.87;29.33;;;;;;;5.02;45.61;102700.14;3647130;79;98787;-79
2022/03/21 21:04:31;;;;;;;62.65;30.45;;;;;;;4.96;45.34;102700.72;3660413;79;98714;-77
2022/03/21 21:09:32;;;;;;;58.23;28.80;;;;;;;4.89;45.44;102692.05;3635044;80;98897;-80
2022/03/21 21:14:33;;;;;;;59.60;28.47;;;;;;;4.83;45.65;102699.18;3644571;79;98843;-79
2022/03/21 21:19:35;;;;;;;64.07;29.00;;;;;;;4.78;45.54;102691.02;3640704;79;98956;-78
2022/03/21 21:24:36;;;;;;;59.67;28.45;;;;;;;4.75;45.68;102691.61;3657197;80;98905;-78
2022/03/21 21:29:37;;;;;;;56.87;28.30;;;;;;;4.71;46.02;102695.99;3600343;81;98964;-78
2022/03/21 21:34:38;;;;;;;53.33;27.20;;;;;;;4.63;45.97;102685.13;3605400;81;98609;-79
2022/03/21 21:39:39;;;;;;;56.77;26.10;;;;;;;4.58;45.93;102681.63;3490437;82;98873;-79
2022/03/21 21:44:39;;;;;;;62.47;28.33;;;;;;;4.52;46.34;102678.64;3568951;81;98861;-80
2022/03/21 21:49:40;;;;;;;55.70;25.83;;;;;;;4.47;46.24;102689.05;3560493;80;98821;-81
2022/03/21 21:54:43;;;;;;;60.57;26.73;;;;;;;4.43;46.42;102684.45;3528075;82;98934;-81
2022/03/21 21:59:48;;;;;;;65.53;28.67;;;;;;;4.36;46.23;102679.30;3491512;82;98691;-81
2022/03/21 22:04:49;;;;;;;56.75;27.77;;;;;;;4.34;46.41;102684.75;3562077;81;98752;-79
2022/03/21 22:09:51;;;;;;;57.43;27.15;;;;;;;4.37;46.39;102681.48;3551855;81;98628;-79
2022/03/21 22:14:52;;;;;;;57.93;26.97;;;;;;;4.38;46.48;102682.57;3563238;81;98788;-79
2022/03/21 22:19:53;;;;;;;65.80;30.63;;;;;;;4.34;46.74;102671.95;3554540;80;98853;-79
2022/03/21 22:24:54;;;;;;;61.40;27.70;;;;;;;4.37;46.76;102682.84;3563304;82;98847;-79
2022/03/21 22:29:55;;;;;;;62.50;28.83;;;;;;;4.36;46.78;102677.13;3558032;81;98960;-79
2022/03/21 22:34:56;;;;;;;55.67;26.53;;;;;;;4.32;46.93;102674.69;3560862;81;99152;-79
2022/03/21 22:50:27;;;;;;;60.03;27.10;;;;;;;4.16;47.03;102684.83;3552521;82;98839;-80
2022/03/21 22:55:28;;;;;;;61.20;28.93;;;;;;;4.11;47.26;102678.07;3565093;82;98896;-80
2022/03/21 23:00:46;;;;;;;60.50;29.63;;;;;;;4.12;47.34;102682.95;3552474;81;98888;-80
2022/03/21 23:05:47;;;;;;;60.10;27.70;;;;;;;4.10;47.45;102679.14;3558712;82;32247;-81
2022/03/21 23:10:49;;;;;;;52.00;25.80;;;;;;;4.07;47.59;102681.08;3553018;82;98760;-81
2022/03/21 23:15:50;;;;;;;57.07;27.43;;;;;;;4.06;47.70;102686.27;3563654;81;98305;-81
2022/03/21 23:20:51;;;;;;;56.63;26.77;;;;;;;4.04;47.83;102680.26;3552835;81;98775;-80
2022/03/21 23:25:53;;;;;;;56.85;26.52;;;;;;;4.04;48.00;102683.55;3559083;82;98864;-81
2022/03/21 23:30:53;;;;;;;55.73;27.07;;;;;;;4.03;47.86;102682.72;3551901;81;98801;-81
2022/03/21 23:35:55;;;;;;;53.50;26.43;;;;;;;4.01;48.03;102682.20;3558570;82;34942;-80
2022/03/21 23:46:16;;;;;;;58.45;28.62;;;;;;;3.98;48.41;102684.10;3564059;81;98726;-80
2022/03/21 23:51:18;;;;;;;56.08;26.10;;;;;;;4.01;48.44;102682.73;3558959;81;99221;-80
2022/03/21 23:56:19;;;;;;;53.87;25.63;;;;;;;4.01;48.33;102682.20;3571421;81;99272;-80
